ADDS METAR Data INFO
IDs: Format: Raw Decoded Include TAF

Data at: 1846 UTC 16 Dec 2017

KSDY 161756Z AUTO 32008KT 10SM CLR 02/M06 A2998 RMK AO2 SLP174 T00171056 10017 21033 51019 FZRANO
KSDY 161656Z AUTO 32014KT 10SM CLR 00/M06 A2996 RMK AO2 SLP171 T00001056 FZRANO
KSDY 161556Z AUTO 31013KT 10SM CLR M02/M05 A2994 RMK AO2 SLP164 T10171050 FZRANO
KSDY 161456Z AUTO 29014KT 10SM CLR M03/M06 A2992 RMK AO2 SLP157 T10331056 53023 FZRANO
KSDY 161356Z AUTO 31013KT 10SM CLR M03/M05 A2989 RMK AO2 SLP147 T10281050 FZRANO
KSDY 161256Z AUTO 31013KT 10SM CLR M02/M04 A2987 RMK AO2 SLP137 T10171044 FZRANO
KSDY 161156Z AUTO 30009KT 10SM CLR M01/M04 A2985 RMK AO2 SLP129 60000 T10111039 10039 21011 53018 FZRANO
KSDY 161056Z AUTO 30011KT 10SM CLR 00/M03 A2982 RMK AO2 SLP121 T00001028 FZRANO
KSDY 160956Z AUTO 30012KT 10SM FEW043 01/M02 A2980 RMK AO2 SLP111 T00061017 FZRANO
KSDY 160856Z AUTO 30010KT 10SM CLR 02/M01 A2979 RMK AO2 SLP105 60000 T00221011 53029 FZRANO
KSDY 160756Z AUTO 31012KT 10SM OVC090 03/00 A2975 RMK AO2 SLP091 T00330000
KSDY 160656Z AUTO 30017KT 10SM OVC070 03/01 A2973 RMK AO2 RAE12 SLP085 P0000 T00330006
KSDY 160556Z AUTO 31014KT 10SM -RA BKN039 OVC049 03/01 A2970 RMK AO2 SLP075 P0000 60000 T00330011 10067 20033 400891039 52030
KSDY 160456Z AUTO 32017G21KT 10SM -RA BKN055 04/01 A2967 RMK AO2 RAB19 SLP064 P0000 T00390011
KSDY 160256Z AUTO 31010KT 10SM BKN050 06/M05 A2961 RMK AO2 SLP048 T00561050 51013
KSDY 160156Z AUTO 31010KT 10SM OVC055 06/M05 A2961 RMK AO2 SLP048 T00561050
KSDY 160056Z AUTO 31012KT 10SM FEW060 BKN085 07/M05 A2958 RMK AO2 SLP039 T00671050
KSDY 152356Z AUTO 28015KT 10SM FEW055 07/M06 A2957 RMK AO2 SLP033 T00671056 10089 20061 50004
KSDY 152256Z AUTO 29018G23KT 10SM SCT120 07/M06 A2957 RMK AO2 SLP035 T00671061
KSDY 152156Z AUTO 30011KT 10SM OVC110 08/M06 A2957 RMK AO2 SLP035 T00781056
KSDY 152056Z AUTO 29016KT 10SM BKN110 09/M06 A2955 RMK AO2 SLP028 T00891056 56030
KSDY 151956Z AUTO 29020G26KT 10SM CLR 08/M06 A2958 RMK AO2 PK WND 29026/1955 SLP037 T00831061
KSDY 151856Z AUTO 27019G24KT 10SM CLR 07/M06 A2961 RMK AO2 SLP048 T00721056
KSDY 151756Z AUTO 29006KT 10SM CLR 06/M05 A2965 RMK AO2 SLP064 T00611050 10061 21028 58015
KSDY 151656Z AUTO 26007KT 10SM CLR 04/M05 A2967 RMK AO2 SLP071 T00441050
KSDY 151556Z AUTO 23009KT 10SM CLR 01/M04 A2968 RMK AO2 SLP082 T00061044 FZRANO
KSDY 151456Z AUTO 19007KT 10SM CLR M02/M05 A2969 RMK AO2 SLP085 T10221050 56022 FZRANO
KSDY 151356Z AUTO 21011KT 10SM CLR M02/M05 A2971 RMK AO2 SLP089 T10221050 FZRANO
KSDY 151256Z AUTO 19007KT 10SM CLR M02/M04 A2974 RMK AO2 SLP098 T10171044 FZRANO
KSDY 151156Z AUTO 18006KT 10SM BKN120 M02/M04 A2976 RMK AO2 SLP106 T10171044 11017 21039 56035 FZRANO
KSDY 151056Z AUTO 19008KT 10SM CLR M03/M05 A2978 RMK AO2 SLP113 T10281050 FZRANO
KSDY 150956Z AUTO 19005KT 10SM CLR M03/M06 A2983 RMK AO2 PRESFR SLP127 T10331056 FZRANO
KSDY 150856Z AUTO 19005KT 10SM CLR M04/M06 A2987 RMK AO2 SLP142 T10391056 58040 FZRANO
KSDY 150756Z AUTO 16004KT 10SM CLR M04/M06 A2991 RMK AO2 SLP156 T10391056 FZRANO
KSDY 150656Z AUTO 19006KT 10SM CLR M03/M06 A2996 RMK AO2 SLP172 T10331056 FZRANO